Time;durP1;ratioP1;P1;durP2;ratioP2;P2;SDS_P1;SDS_P2;PMS_P1;PMS_P2;Temp;Humidity;BMP_temperature;BMP_pressure;BME280_temperature;BME280_humidity;BME280_pressure;Samples;Min_cycle;Max_cycle;Signal;HPM_P1;HPM_P2
2022/10/06 00:01:05;;;;;;;2.55;1.10;;;;;;;25.93;40.23;102705.84;5034215;28;20022;-56
2022/10/06 00:03:33;;;;;;;1.65;0.93;;;;;;;25.95;40.05;102703.25;5034088;28;20096;-56
2022/10/06 00:06:02;;;;;;;1.90;1.00;;;;;;;25.93;40.30;102704.94;5033872;28;20403;-49
2022/10/06 00:08:31;;;;;;;2.72;1.00;;;;;;;25.92;40.11;102709.34;5034221;28;20032;-55
2022/10/06 00:11:00;;;;;;;3.70;1.10;;;;;;;25.99;39.78;102706.88;5034065;28;20479;-56
2022/10/06 00:13:28;;;;;;;3.38;1.30;;;;;;;25.96;39.92;102709.44;5034110;28;20040;-57
2022/10/06 00:16:00;;;;;;;4.55;1.13;;;;;;;25.94;39.97;102718.16;5034131;28;20022;-58
2022/10/06 00:18:31;;;;;;;1.95;1.00;;;;;;;25.90;40.30;102718.00;5034050;28;20032;-57
2022/10/06 00:21:01;;;;;;;2.38;1.27;;;;;;;25.87;40.30;102715.28;5033927;28;20040;-56
2022/10/06 00:23:30;;;;;;;2.42;1.13;;;;;;;25.87;40.08;102718.78;5034024;28;20029;-54
2022/10/06 00:25:58;;;;;;;1.52;0.80;;;;;;;25.93;40.21;102724.25;5033870;28;20017;-57
2022/10/06 00:28:27;;;;;;;1.92;0.95;;;;;;;25.91;39.91;102723.31;5033910;28;20022;-56
2022/10/06 00:30:56;;;;;;;2.33;0.90;;;;;;;25.92;39.86;102714.59;5033723;28;20136;-57
2022/10/06 00:33:24;;;;;;;2.58;1.20;;;;;;;25.88;40.04;102724.97;5033589;28;20375;-57
2022/10/06 00:36:02;;;;;;;1.70;1.20;;;;;;;25.84;40.25;102723.94;5032194;28;20521;-58
2022/10/06 00:38:30;;;;;;;3.22;1.25;;;;;;;25.87;40.03;102731.94;5033660;28;20018;-57
2022/10/06 00:40:57;;;;;;;1.70;0.75;;;;;;;25.89;39.93;102732.00;5033516;28;20874;-57
2022/10/06 00:43:46;;;;;;;1.88;0.80;;;;;;;25.78;40.04;102729.03;5033610;28;20031;-56
2022/10/06 00:46:36;;;;;;;3.28;1.20;;;;;;;25.82;39.99;102730.88;5029230;28;20525;-56
2022/10/06 00:49:12;;;;;;;2.78;1.10;;;;;;;25.81;40.08;102736.09;5032650;28;20072;-57
2022/10/06 00:51:44;;;;;;;1.90;1.10;;;;;;;25.74;40.25;102743.78;5032250;28;20030;-56
2022/10/06 00:54:13;;;;;;;2.22;0.98;;;;;;;25.80;39.84;102743.13;5032104;28;20029;-57
2022/10/06 00:56:42;;;;;;;5.43;1.25;;;;;;;25.76;40.23;102741.22;5033384;28;20033;-57
2022/10/06 00:59:13;;;;;;;2.05;0.80;;;;;;;25.81;40.13;102738.72;5033171;28;20025;-57
2022/10/06 01:01:46;;;;;;;2.42;1.08;;;;;;;25.78;40.13;102740.41;5033189;28;20030;-56
2022/10/06 01:04:16;;;;;;;2.55;0.88;;;;;;;25.78;39.99;102742.16;5033121;28;20030;-56
2022/10/06 01:06:52;;;;;;;2.03;0.90;;;;;;;25.80;40.02;102740.50;5031746;28;20026;-56
2022/10/06 01:09:22;;;;;;;2.05;0.68;;;;;;;25.72;40.16;102745.47;5033050;28;20029;-57
2022/10/06 01:11:52;;;;;;;2.05;0.95;;;;;;;25.74;40.20;102740.28;5032904;28;20029;-57
2022/10/06 01:14:22;;;;;;;3.60;1.23;;;;;;;25.80;40.01;102756.25;5032975;28;20049;-56
2022/10/06 01:17:07;;;;;;;1.60;0.85;;;;;;;25.76;40.19;102742.09;5032914;28;20113;-57
2022/10/06 01:19:49;;;;;;;3.22;1.25;;;;;;;25.77;40.04;102750.88;5031699;28;20452;-57
2022/10/06 01:22:24;;;;;;;2.05;0.80;;;;;;;25.74;40.13;102745.53;5032918;28;20095;-57
2022/10/06 01:24:53;;;;;;;2.10;0.85;;;;;;;25.72;40.04;102745.47;5033062;28;20536;-57
2022/10/06 01:27:23;;;;;;;1.73;0.93;;;;;;;25.73;39.78;102751.63;5032355;28;20025;-57
2022/10/06 01:29:53;;;;;;;1.83;0.93;;;;;;;25.73;40.08;102755.13;5032688;28;20037;-57
2022/10/06 01:32:22;;;;;;;3.08;1.20;;;;;;;25.76;39.82;102757.88;5031601;28;20018;-56
2022/10/06 01:34:51;;;;;;;0.90;0.70;;;;;;;25.76;39.92;102757.00;5032595;28;20048;-56
2022/10/06 01:37:19;;;;;;;2.88;0.73;;;;;;;25.76;39.73;102757.00;5032690;28;20034;-57
2022/10/06 01:39:48;;;;;;;1.58;0.70;;;;;;;25.70;40.02;102756.78;5032204;28;20436;-55
2022/10/06 01:42:16;;;;;;;2.42;0.93;;;;;;;25.70;39.91;102751.50;5032228;28;20053;-57
2022/10/06 01:44:45;;;;;;;1.38;0.80;;;;;;;25.70;39.83;102752.41;5032180;28;20025;-56
2022/10/06 01:47:13;;;;;;;3.42;0.80;;;;;;;25.74;39.98;102758.66;5032102;28;20029;-57
2022/10/06 01:49:41;;;;;;;2.22;0.90;;;;;;;25.72;39.77;102758.63;5030912;28;20025;-57
2022/10/06 01:52:10;;;;;;;1.77;0.80;;;;;;;25.72;39.77;102758.63;5032422;28;20033;-56
2022/10/06 01:54:39;;;;;;;3.63;0.70;;;;;;;25.73;39.64;102757.75;5031190;28;20029;-57
2022/10/06 01:57:07;;;;;;;2.35;0.80;;;;;;;25.74;39.77;102756.03;5032307;28;20074;-52
2022/10/06 01:59:36;;;;;;;1.73;0.73;;;;;;;25.70;39.69;102760.31;5032144;28;20029;-57
2022/10/06 02:02:05;;;;;;;1.80;0.60;;;;;;;25.72;39.59;102760.34;5032276;28;20037;-57
2022/10/06 02:04:33;;;;;;;1.35;0.52;;;;;;;25.68;39.80;102763.69;5032364;28;20536;-56
2022/10/06 02:07:02;;;;;;;1.50;0.57;;;;;;;25.72;39.65;102765.59;5032125;28;20075;-56
2022/10/06 02:09:30;;;;;;;3.20;0.90;;;;;;;25.72;39.78;102762.97;5032279;28;20025;-56
2022/10/06 02:11:59;;;;;;;2.08;1.05;;;;;;;25.69;39.86;102760.25;5032284;28;20070;-56
2022/10/06 02:14:30;;;;;;;2.78;0.88;;;;;;;25.65;39.71;102761.88;5031028;28;20030;-56
2022/10/06 02:16:59;;;;;;;1.70;0.70;;;;;;;25.68;39.63;102763.69;5032071;28;20022;-57
2022/10/06 02:19:27;;;;;;;0.55;0.50;;;;;;;25.66;39.79;102761.03;5032221;28;20076;-57
2022/10/06 02:21:55;;;;;;;3.70;0.80;;;;;;;25.66;39.90;102758.41;5030320;28;20075;-57
2022/10/06 02:24:23;;;;;;;1.73;0.70;;;;;;;25.61;39.71;102762.59;5032271;28;20030;-57
2022/10/06 02:26:52;;;;;;;0.60;0.45;;;;;;;25.61;39.79;102759.97;5032069;28;20036;-57
2022/10/06 02:29:21;;;;;;;1.45;0.73;;;;;;;25.63;39.75;102761.84;5032063;28;20036;-57
2022/10/06 02:31:49;;;;;;;5.15;0.70;;;;;;;25.64;39.66;102762.72;5031804;28;20061;-57
2022/10/06 02:34:18;;;;;;;1.17;0.65;;;;;;;25.46;39.45;102728.81;5031974;28;20053;-57
2022/10/06 02:36:46;;;;;;;0.60;0.50;;;;;;;25.63;39.72;102755.66;5031963;28;20108;-58
2022/10/06 02:39:15;;;;;;;1.42;0.77;;;;;;;25.59;39.84;102757.31;5032052;28;20471;-57
2022/10/06 02:41:43;;;;;;;1.10;0.80;;;;;;;25.60;39.71;102755.56;5031934;28;20099;-55
2022/10/06 02:44:12;;;;;;;3.20;0.82;;;;;;;25.59;39.54;102769.53;5031857;28;20053;-56
2022/10/06 02:46:41;;;;;;;2.83;0.63;;;;;;;25.61;39.68;102767.84;5031678;28;20030;-56
2022/10/06 02:49:10;;;;;;;3.05;0.60;;;;;;;25.70;39.25;102767.28;5032018;28;20025;-55
2022/10/06 02:51:38;;;;;;;1.52;0.77;;;;;;;25.63;39.65;102760.94;5030601;28;20036;-56
2022/10/06 02:54:06;;;;;;;0.70;0.52;;;;;;;25.58;39.68;102767.75;5031673;28;20022;-56
2022/10/06 02:56:36;;;;;;;1.58;0.70;;;;;;;25.58;39.58;102768.66;5031981;28;20064;-58
2022/10/06 02:59:05;;;;;;;2.67;0.90;;;;;;;25.55;39.41;102765.03;5031499;28;20510;-56
2022/10/06 03:01:33;;;;;;;1.40;0.70;;;;;;;25.58;39.61;102779.16;5033388;28;20463;-57
2022/10/06 03:04:02;;;;;;;1.73;0.80;;;;;;;25.57;39.62;102769.50;5034123;28;20025;-56
2022/10/06 03:06:31;;;;;;;1.73;0.77;;;;;;;25.54;39.58;102766.75;5035255;28;20016;-57
2022/10/06 03:09:02;;;;;;;2.28;0.70;;;;;;;25.55;39.60;102775.56;5035375;28;20029;-57
2022/10/06 03:11:34;;;;;;;1.65;0.60;;;;;;;25.53;39.59;102778.09;5034079;28;20021;-55
2022/10/06 03:14:03;;;;;;;2.25;0.88;;;;;;;25.55;39.38;102781.69;5035202;28;20055;-56
2022/10/06 03:16:34;;;;;;;3.17;0.77;;;;;;;25.53;39.51;102774.59;5035161;28;20058;-56
2022/10/06 03:19:05;;;;;;;1.38;0.60;;;;;;;25.49;39.38;102770.94;5035122;28;20033;-56
2022/10/06 03:21:36;;;;;;;1.05;0.60;;;;;;;25.53;39.53;102771.97;5034960;28;20029;-56
2022/10/06 03:24:06;;;;;;;1.02;0.50;;;;;;;25.53;39.39;102777.22;5034979;28;20022;-55
2022/10/06 03:26:40;;;;;;;1.10;0.73;;;;;;;25.53;39.47;102780.72;5035242;28;20072;-56
2022/10/06 03:29:09;;;;;;;2.43;0.60;;;;;;;25.56;39.39;102775.59;5033617;28;20025;-55
2022/10/06 03:31:40;;;;;;;0.85;0.43;;;;;;;25.56;39.55;102785.22;5034963;28;20022;-56
2022/10/06 03:34:08;;;;;;;1.30;0.70;;;;;;;25.52;39.49;102771.06;5034846;28;20387;-57
2022/10/06 03:36:37;;;;;;;1.60;0.80;;;;;;;25.51;39.33;102782.41;5034813;28;20439;-56
2022/10/06 03:39:06;;;;;;;1.50;0.70;;;;;;;25.47;39.63;102778.78;5034970;28;20391;-56
2022/10/06 03:41:36;;;;;;;2.40;0.68;;;;;;;25.48;39.41;102780.56;5034168;28;20053;-56
2022/10/06 03:44:05;;;;;;;4.03;0.70;;;;;;;25.45;39.61;102777.84;5034689;28;20029;-53
2022/10/06 03:46:35;;;;;;;1.40;0.60;;;;;;;25.44;39.62;102783.94;5034466;28;20032;-56
2022/10/06 03:49:04;;;;;;;1.88;0.60;;;;;;;25.46;39.58;102787.50;5034697;28;20029;-57
2022/10/06 03:51:35;;;;;;;1.17;0.63;;;;;;;25.43;39.60;102789.13;5033200;28;20486;-57
2022/10/06 03:54:04;;;;;;;1.45;0.60;;;;;;;25.47;39.30;102793.69;5034470;28;20063;-57
2022/10/06 03:56:35;;;;;;;1.38;0.60;;;;;;;25.47;39.29;102791.94;5034369;28;20372;-56
2022/10/06 03:59:08;;;;;;;1.25;0.60;;;;;;;25.46;39.52;102799.78;5034486;28;20032;-56
2022/10/06 04:01:38;;;;;;;1.25;0.43;;;;;;;25.45;39.21;102804.09;5034292;28;20025;-57
2022/10/06 04:04:07;;;;;;;3.05;0.70;;;;;;;25.46;39.20;102805.03;5034182;28;20028;-56
2022/10/06 04:06:38;;;;;;;1.88;0.90;;;;;;;25.46;39.53;102803.28;5034142;28;20025;-55
2022/10/06 04:09:08;;;;;;;1.10;0.47;;;;;;;25.39;39.49;102801.25;5034207;28;20033;-57
2022/10/06 04:11:39;;;;;;;1.83;0.80;;;;;;;25.34;39.60;102798.44;5033919;28;20040;-57
2022/10/06 04:14:09;;;;;;;0.80;0.50;;;;;;;25.40;39.28;102810.00;5032831;28;20067;-57
2022/10/06 04:16:40;;;;;;;2.05;0.93;;;;;;;25.43;39.39;102816.28;5034220;28;20985;-58
2022/10/06 04:19:10;;;;;;;1.67;0.70;;;;;;;25.43;39.46;102816.28;5034018;28;20056;-57
2022/10/06 04:21:39;;;;;;;4.45;0.60;;;;;;;25.42;39.43;102822.38;5033582;28;20386;-57
2022/10/06 04:24:09;;;;;;;1.70;0.73;;;;;;;25.42;39.25;102824.13;5033541;28;20030;-57
2022/10/06 04:26:40;;;;;;;1.08;0.60;;;;;;;25.42;39.27;102832.00;5033517;28;20029;-57
2022/10/06 04:29:09;;;;;;;1.65;0.52;;;;;;;25.44;39.20;102827.72;5033789;28;20029;-57
2022/10/06 04:31:39;;;;;;;1.13;0.50;;;;;;;25.45;39.11;102829.50;5033932;28;20037;-57
2022/10/06 04:34:08;;;;;;;1.83;0.80;;;;;;;25.44;39.11;102836.47;5033757;28;20022;-57
2022/10/06 04:36:39;;;;;;;3.40;0.82;;;;;;;25.40;39.37;102831.03;5033682;28;20048;-57
2022/10/06 04:39:09;;;;;;;1.15;0.40;;;;;;;25.38;39.32;102838.88;5033715;28;20030;-57
2022/10/06 04:41:40;;;;;;;1.20;0.57;;;;;;;25.34;39.29;102835.22;5033233;28;20590;-57
2022/10/06 04:44:09;;;;;;;1.20;0.70;;;;;;;25.39;39.50;102840.66;5032551;28;20036;-55
2022/10/06 04:46:36;;;;;;;1.60;0.73;;;;;;;25.38;39.43;102843.22;5033367;28;20104;-56
2022/10/06 04:49:03;;;;;;;2.50;0.80;;;;;;;25.40;39.07;102841.53;5033511;28;20026;-56
2022/10/06 04:51:32;;;;;;;2.67;0.77;;;;;;;25.41;39.25;102838.06;5033398;28;20022;-56
2022/10/06 04:54:01;;;;;;;1.52;0.68;;;;;;;25.39;39.34;102840.66;5033604;28;20029;-57
2022/10/06 04:56:31;;;;;;;1.65;0.80;;;;;;;25.37;39.38;102841.41;5033312;28;20045;-54
2022/10/06 04:59:01;;;;;;;0.98;0.50;;;;;;;25.29;39.32;102836.78;5033221;28;20061;-57
2022/10/06 05:01:31;;;;;;;1.30;0.73;;;;;;;25.36;39.05;102844.88;5033151;28;20029;-56
2022/10/06 05:04:01;;;;;;;1.60;0.70;;;;;;;25.37;39.51;102846.69;5033145;28;20028;-56
2022/10/06 05:06:33;;;;;;;1.52;0.70;;;;;;;25.34;39.08;102853.59;5033323;28;20026;-56
2022/10/06 05:09:04;;;;;;;1.40;0.47;;;;;;;25.34;38.91;102848.34;5031687;28;20069;-56
2022/10/06 05:11:32;;;;;;;3.35;0.70;;;;;;;25.36;39.48;102853.69;5033133;28;20431;-56
2022/10/06 05:14:00;;;;;;;2.05;1.00;;;;;;;25.35;39.08;102859.75;5033024;28;20021;-56
2022/10/06 05:16:29;;;;;;;1.90;0.68;;;;;;;25.31;38.96;102853.50;5032670;28;20021;-57
2022/10/06 05:18:58;;;;;;;1.30;0.60;;;;;;;25.33;39.27;102850.94;5032950;28;20053;-56
2022/10/06 05:21:32;;;;;;;1.35;0.70;;;;;;;25.32;39.19;102855.28;5031643;28;20111;-57
2022/10/06 05:24:01;;;;;;;1.92;0.60;;;;;;;25.28;39.30;102840.25;5032244;28;20040;-57
2022/10/06 05:26:31;;;;;;;0.82;0.60;;;;;;;25.31;39.29;102853.50;5032812;28;20151;-56
2022/10/06 05:29:00;;;;;;;5.97;1.00;;;;;;;25.37;38.89;102859.81;5032733;28;20082;-56
2022/10/06 05:31:30;;;;;;;1.83;0.50;;;;;;;25.36;38.98;102855.38;5032708;28;20025;-56
2022/10/06 05:33:59;;;;;;;6.38;0.85;;;;;;;25.32;38.75;102855.28;5031519;28;20034;-56
2022/10/06 05:36:30;;;;;;;2.63;0.60;;;;;;;25.22;39.28;102853.16;5032640;28;20052;-57
2022/10/06 05:38:58;;;;;;;1.27;0.63;;;;;;;25.29;39.02;102859.53;5032727;28;20026;-57
2022/10/06 05:41:28;;;;;;;1.30;0.60;;;;;;;25.27;39.29;102867.34;5032435;28;20045;-55
2022/10/06 05:43:57;;;;;;;2.30;0.82;;;;;;;25.28;39.07;102868.25;5032478;28;20029;-57
2022/10/06 05:46:30;;;;;;;2.97;0.85;;;;;;;25.28;38.84;102866.53;5032350;28;20132;-56
2022/10/06 05:49:00;;;;;;;3.33;1.35;;;;;;;25.29;38.86;102876.19;5032516;28;20032;-56
2022/10/06 05:51:30;;;;;;;2.08;0.82;;;;;;;25.28;38.99;102881.38;5032599;28;20037;-57
2022/10/06 05:53:58;;;;;;;1.52;0.70;;;;;;;25.28;38.86;102878.75;5032318;28;20029;-55
2022/10/06 05:56:30;;;;;;;3.17;0.63;;;;;;;25.25;39.27;102879.53;5032436;28;20450;-57
2022/10/06 05:58:59;;;;;;;2.25;0.85;;;;;;;25.25;38.87;102879.53;5031365;28;20120;-56
2022/10/06 06:01:30;;;;;;;1.23;0.50;;;;;;;25.25;38.77;102878.63;5032293;28;20029;-57
2022/10/06 06:04:02;;;;;;;1.52;0.60;;;;;;;25.21;38.81;102882.88;5032499;28;20021;-56
2022/10/06 06:06:35;;;;;;;3.03;0.70;;;;;;;25.20;39.08;102890.72;5032132;28;20033;-56
2022/10/06 06:09:06;;;;;;;4.55;0.80;;;;;;;25.24;39.04;102885.63;5032319;28;20036;-56
2022/10/06 06:11:36;;;;;;;2.53;0.70;;;;;;;25.25;38.82;102892.69;5031128;28;20063;-56
2022/10/06 06:14:07;;;;;;;3.20;0.68;;;;;;;25.26;38.89;102889.22;5032346;28;20026;-56
2022/10/06 06:16:37;;;;;;;3.10;0.65;;;;;;;25.30;38.75;102900.72;5032236;28;20034;-57
2022/10/06 06:19:06;;;;;;;4.82;0.73;;;;;;;25.21;38.61;102884.63;5032081;28;20022;-56
2022/10/06 06:21:35;;;;;;;4.38;0.68;;;;;;;25.24;39.03;102900.47;5032085;28;20391;-56
2022/10/06 06:24:04;;;;;;;3.42;0.80;;;;;;;25.22;39.19;102894.28;5031992;28;20030;-54
2022/10/06 06:26:35;;;;;;;5.50;0.98;;;;;;;25.23;39.12;102907.47;5030840;28;20020;-56
2022/10/06 06:29:05;;;;;;;2.88;0.77;;;;;;;25.22;38.73;102900.44;5032145;28;20021;-55
2022/10/06 06:31:42;;;;;;;3.40;0.63;;;;;;;25.20;38.79;102893.34;5031791;28;20014;-56
2022/10/06 06:34:11;;;;;;;1.70;0.70;;;;;;;25.24;38.81;102911.91;5032063;28;20033;-56
2022/10/06 06:36:40;;;;;;;3.53;0.93;;;;;;;25.24;38.79;102908.34;5035736;28;20048;-57
2022/10/06 06:39:10;;;;;;;1.92;0.70;;;;;;;25.24;39.00;102908.34;5035782;28;20084;-56
2022/10/06 06:41:41;;;;;;;2.78;0.90;;;;;;;25.27;38.66;102911.09;5034359;28;20133;-56
2022/10/06 06:44:10;;;;;;;1.70;0.77;;;;;;;25.23;38.87;102917.97;5034724;28;20028;-55
2022/10/06 06:46:40;;;;;;;1.20;0.57;;;;;;;25.21;38.71;102910.88;5035655;28;20033;-56
2022/10/06 06:49:09;;;;;;;3.70;0.60;;;;;;;25.21;39.17;102914.41;5034204;28;20021;-56
2022/10/06 06:51:39;;;;;;;3.47;0.70;;;;;;;25.22;39.22;102921.44;5035408;28;20033;-56
2022/10/06 06:54:08;;;;;;;2.45;0.70;;;;;;;25.27;39.13;102922.53;5035519;28;20026;-56
2022/10/06 06:56:37;;;;;;;4.78;1.00;;;;;;;25.28;39.05;102920.78;5035534;28;20030;-56
2022/10/06 06:59:10;;;;;;;3.85;0.70;;;;;;;25.26;38.68;102928.63;5034120;28;20025;-54
2022/10/06 07:01:42;;;;;;;4.03;0.70;;;;;;;25.24;39.12;102924.13;5032696;28;20060;-46
2022/10/06 07:04:11;;;;;;;3.90;0.73;;;;;;;25.24;39.04;102927.66;5033582;28;20021;-52
2022/10/06 07:06:39;;;;;;;5.00;0.73;;;;;;;25.26;39.06;102931.25;5030311;28;20448;-56
2022/10/06 07:09:08;;;;;;;3.38;0.77;;;;;;;25.32;39.21;102928.81;5034747;28;20429;-55
2022/10/06 07:11:37;;;;;;;3.47;0.80;;;;;;;25.38;39.13;102927.28;5034831;28;20458;-52
2022/10/06 07:14:08;;;;;;;2.13;0.60;;;;;;;25.42;38.92;102931.84;5034427;28;20071;-54
2022/10/06 07:25:10;;;;;;;1.73;0.70;;;;;;;25.46;38.96;102936.41;5022537;28;20048;-55
2022/10/06 07:27:41;;;;;;;1.33;0.50;;;;;;;25.47;38.68;102928.56;5032558;28;20042;-54
2022/10/06 07:30:10;;;;;;;3.00;0.60;;;;;;;25.48;39.00;102935.59;5033532;28;20040;-55
2022/10/06 07:32:37;;;;;;;2.65;0.85;;;;;;;25.59;38.96;102949.16;5029639;28;20049;-56
2022/10/06 07:35:05;;;;;;;2.05;0.93;;;;;;;25.51;38.93;102942.69;5030640;28;20545;-52
2022/10/06 07:37:34;;;;;;;2.10;0.60;;;;;;;25.64;38.63;102957.22;5032972;28;20402;-55
2022/10/06 07:40:01;;;;;;;1.75;0.60;;;;;;;25.68;38.77;102967.00;5032835;28;20029;-55
2022/10/06 07:42:28;;;;;;;4.30;0.75;;;;;;;25.68;38.86;102963.47;5033022;28;20057;-55
2022/10/06 07:45:38;;;;;;;1.92;0.60;;;;;;;25.71;38.89;102968.84;5033601;28;20026;-55
2022/10/06 07:47:42;;;;;;;1.55;0.65;;;;;;;25.76;38.69;102967.28;5031983;28;20029;-55
2022/10/06 07:50:11;;;;;;;1.50;0.60;;;;;;;25.77;38.55;102967.34;5029365;28;20022;-53
2022/10/06 07:52:39;;;;;;;1.95;0.60;;;;;;;25.85;38.67;102969.38;5029257;28;20076;-54
2022/10/06 07:55:07;;;;;;;2.08;0.80;;;;;;;25.86;38.57;102972.03;5033128;28;20167;-51
2022/10/06 07:57:36;;;;;;;2.53;0.80;;;;;;;25.90;38.31;102976.59;5032958;28;20033;-55
2022/10/06 08:00:06;;;;;;;2.63;0.63;;;;;;;25.90;38.57;102973.03;5032891;28;20399;-56
2022/10/06 08:02:33;;;;;;;3.28;0.90;;;;;;;25.89;38.47;102980.03;5032889;28;20037;-55
2022/10/06 08:05:00;;;;;;;4.50;1.63;;;;;;;25.93;38.65;102978.41;5032796;28;20029;-50
2022/10/06 08:07:28;;;;;;;1.95;0.80;;;;;;;26.01;38.34;102976.06;5032798;28;20041;-54
2022/10/06 08:09:57;;;;;;;2.63;0.82;;;;;;;26.05;38.14;102977.97;5032682;28;20120;-55
2022/10/06 08:12:36;;;;;;;5.35;1.10;;;;;;;26.00;38.23;102975.19;5031590;28;20036;-56
2022/10/06 08:15:06;;;;;;;3.58;0.90;;;;;;;26.05;38.34;102980.59;5031937;28;20021;-56
2022/10/06 08:17:36;;;;;;;2.47;0.90;;;;;;;26.08;38.52;102985.97;5032986;28;20036;-55
2022/10/06 08:20:06;;;;;;;1.65;0.60;;;;;;;26.05;38.51;102986.78;5033179;28;20436;-56
2022/10/06 08:22:35;;;;;;;4.20;0.90;;;;;;;26.03;38.42;102988.44;5032785;28;20030;-56
2022/10/06 08:25:04;;;;;;;3.70;1.10;;;;;;;26.00;38.67;102988.34;5033017;28;20072;-56
2022/10/06 08:27:33;;;;;;;1.95;0.70;;;;;;;26.08;38.65;102994.75;5032776;28;20075;-56
2022/10/06 08:30:02;;;;;;;2.25;0.80;;;;;;;26.15;38.29;102995.00;5032719;28;20029;-56
2022/10/06 08:32:31;;;;;;;6.75;1.00;;;;;;;26.07;38.51;102989.44;5032573;28;20030;-56
2022/10/06 08:35:00;;;;;;;1.92;0.70;;;;;;;26.14;38.64;103003.75;5032274;28;20021;-56
2022/10/06 08:37:29;;;;;;;2.17;0.80;;;;;;;26.14;38.31;102995.84;5029676;28;20033;-56
2022/10/06 08:39:57;;;;;;;4.28;1.40;;;;;;;26.19;38.25;103000.44;5032156;28;20049;-55
2022/10/06 08:42:30;;;;;;;1.55;0.82;;;;;;;26.26;38.34;103003.28;5032088;28;20133;-44
2022/10/06 08:45:18;;;;;;;5.70;1.27;;;;;;;26.13;38.46;102994.06;5028472;28;20058;-56
2022/10/06 08:48:06;;;;;;;3.33;1.55;;;;;;;26.28;38.19;103001.63;5031962;28;20125;-56
2022/10/06 08:50:47;;;;;;;5.13;1.90;;;;;;;26.23;38.39;103007.59;5031051;28;20029;-56
2022/10/06 08:53:31;;;;;;;3.45;1.45;;;;;;;26.05;38.69;102980.59;5032123;28;20084;-56
2022/10/06 08:56:09;;;;;;;7.13;2.47;;;;;;;26.18;38.38;103011.78;5032285;28;20086;-55
2022/10/06 08:58:54;;;;;;;4.28;1.52;;;;;;;26.21;38.49;103006.66;5031450;28;20113;-55
2022/10/06 09:01:22;;;;;;;;;;;;;;;26.21;38.26;103005.78;5031531;28;20101;-55
2022/10/06 09:03:52;;;;;;;9.38;1.88;;;;;;;26.31;38.23;103010.50;5029613;28;19917;-50
2022/10/06 09:06:25;;;;;;;7.30;1.95;;;;;;;26.26;38.39;103011.19;5030198;28;20025;-53
2022/10/06 09:08:57;;;;;;;6.22;2.00;;;;;;;26.30;38.10;103010.47;5032168;28;20021;-50
2022/10/06 09:11:34;;;;;;;7.85;2.00;;;;;;;26.27;38.38;103007.72;5030234;28;20557;-56
2022/10/06 09:14:18;;;;;;;11.02;2.55;;;;;;;26.18;38.72;103010.91;5031414;28;21023;-55
2022/10/06 09:16:49;;;;;;;7.32;2.55;;;;;;;26.18;38.61;103014.44;5014869;28;20036;-55
2022/10/06 09:19:22;;;;;;;7.20;2.08;;;;;;;26.22;38.68;103015.47;5030065;28;20018;-55
2022/10/06 09:21:52;;;;;;;8.98;2.35;;;;;;;26.19;38.52;103010.97;5030474;28;20026;-54
2022/10/06 09:24:48;;;;;;;12.27;3.65;;;;;;;26.23;38.66;103018.13;5029855;28;20033;-53
2022/10/06 09:27:22;;;;;;;12.20;3.45;;;;;;;26.33;38.37;103026.34;5031486;28;20029;-56
2022/10/06 09:29:51;;;;;;;8.15;3.10;;;;;;;26.28;38.75;103022.66;5029774;28;20026;-56
2022/10/06 09:32:20;;;;;;;9.77;3.47;;;;;;;26.30;38.94;103026.25;5030543;28;20025;-44
2022/10/06 09:34:54;;;;;;;11.20;3.40;;;;;;;26.35;38.71;103024.66;5029888;28;20029;-55
2022/10/06 09:37:22;;;;;;;12.32;3.20;;;;;;;26.32;38.74;103021.91;5031068;28;20035;-53
2022/10/06 09:39:51;;;;;;;9.43;3.50;;;;;;;26.32;38.95;103020.19;5030778;28;20124;-51
2022/10/06 09:42:19;;;;;;;13.13;3.22;;;;;;;26.36;38.93;103030.00;5031128;28;20053;-55
2022/10/06 09:44:50;;;;;;;12.73;3.42;;;;;;;26.36;39.08;103030.00;5027404;28;20029;-55
2022/10/06 09:47:39;;;;;;;16.85;4.43;;;;;;;26.36;38.96;103029.06;5030207;28;20438;-56
2022/10/06 09:50:26;;;;;;;11.95;3.70;;;;;;;26.45;38.86;103033.78;5030952;28;20033;-51
2022/10/06 09:53:09;;;;;;;12.30;3.80;;;;;;;26.49;38.71;103036.56;5029501;28;20104;-56
2022/10/06 09:55:36;;;;;;;20.63;4.57;;;;;;;26.44;39.15;103030.25;5029899;28;20033;-50
2022/10/06 09:58:15;;;;;;;12.25;3.08;;;;;;;26.43;39.01;103036.38;5029628;28;20037;-54
2022/10/06 10:00:52;;;;;;;17.88;4.35;;;;;;;26.42;39.08;103039.84;5030619;28;20154;-55
2022/10/06 10:03:20;;;;;;;11.68;3.05;;;;;;;26.47;39.21;103038.28;5030828;28;20082;-55
2022/10/06 10:05:50;;;;;;;15.55;3.60;;;;;;;26.47;39.00;103038.28;5030738;28;20032;-55
2022/10/06 10:08:26;;;;;;;10.30;3.50;;;;;;;26.50;39.27;103034.84;5030966;28;20100;-56
2022/10/06 10:14:02;;;;;;;16.13;3.90;;;;;;;26.55;39.22;103033.28;5030164;28;20041;-51
2022/10/06 10:16:36;;;;;;;21.05;4.95;;;;;;;26.51;39.17;103028.75;5035236;28;20109;-56
2022/10/06 10:19:04;;;;;;;10.60;3.10;;;;;;;26.51;39.37;103034.00;5033707;28;20086;-54
2022/10/06 10:21:33;;;;;;;13.68;3.80;;;;;;;26.48;39.29;103034.75;5031852;28;20025;-55
2022/10/06 10:24:04;;;;;;;14.23;3.97;;;;;;;26.53;39.34;103027.94;5033985;28;20029;-55
2022/10/06 10:26:35;;;;;;;18.20;3.75;;;;;;;26.55;39.36;103022.75;5034965;28;20382;-56
2022/10/06 10:29:32;;;;;;;15.52;3.65;;;;;;;26.47;39.46;103027.75;5034708;28;20105;-50
2022/10/06 10:32:11;;;;;;;16.13;4.00;;;;;;;26.57;39.42;103036.81;5031118;28;20083;-57
2022/10/06 10:34:48;;;;;;;9.43;3.30;;;;;;;26.54;39.38;103021.84;5035407;28;20435;-57
2022/10/06 10:37:37;;;;;;;15.85;3.75;;;;;;;26.51;39.07;103016.47;5034781;28;20406;-52
2022/10/06 10:40:16;;;;;;;15.23;3.88;;;;;;;26.59;39.06;103023.75;5034610;28;20061;-57
2022/10/06 10:43:07;;;;;;;9.85;3.15;;;;;;;26.54;39.17;103016.56;5034791;28;20122;-56
2022/10/06 10:45:40;;;;;;;13.60;3.30;;;;;;;26.57;39.20;103017.53;5030550;28;20046;-54
2022/10/06 10:48:16;;;;;;;16.73;3.95;;;;;;;26.60;39.17;103021.16;5031201;28;20053;-55
2022/10/06 10:51:09;;;;;;;12.95;2.92;;;;;;;26.59;39.03;103013.22;5033042;28;20025;-54
2022/10/06 10:54:07;;;;;;;12.52;3.63;;;;;;;26.58;39.12;103008.78;5034421;28;20057;-56
2022/10/06 10:56:35;;;;;;;14.05;3.67;;;;;;;26.59;39.17;103005.31;5031497;28;20030;-56
2022/10/06 10:59:11;;;;;;;13.75;3.45;;;;;;;26.60;39.34;103004.47;5035069;28;20033;-55
2022/10/06 11:01:52;;;;;;;12.55;4.63;;;;;;;26.58;39.14;102999.13;5033256;28;20026;-54
2022/10/06 11:04:20;;;;;;;19.27;4.65;;;;;;;26.62;39.29;103000.16;5029646;28;20064;-49
2022/10/06 11:07:13;;;;;;;15.35;3.83;;;;;;;26.59;39.33;103000.03;5033458;28;20028;-53
2022/10/06 11:10:19;;;;;;;17.27;4.07;;;;;;;26.58;39.67;102999.13;5033750;28;20029;-52
2022/10/06 11:13:11;;;;;;;19.67;4.57;;;;;;;26.65;39.61;103001.16;5030273;28;20032;-51
2022/10/06 11:16:18;;;;;;;22.65;4.47;;;;;;;26.64;39.60;102991.47;5034052;28;20399;-52
2022/10/06 11:18:59;;;;;;;20.55;4.60;;;;;;;26.63;39.75;102996.69;5026285;28;20033;-55
2022/10/06 11:21:48;;;;;;;13.45;2.95;;;;;;;26.66;39.54;102989.78;5029159;28;20030;-55
2022/10/06 11:24:19;;;;;;;19.35;4.60;;;;;;;26.69;39.72;102992.50;5030441;28;20030;-50
2022/10/06 11:26:56;;;;;;;14.70;3.75;;;;;;;26.71;39.41;102989.91;5030731;28;20026;-51
2022/10/06 11:29:43;;;;;;;16.30;3.95;;;;;;;26.72;39.46;102990.84;5030301;28;20083;-55
2022/10/06 11:32:27;;;;;;;16.67;3.58;;;;;;;26.77;39.35;102978.69;5028829;28;20042;-48
2022/10/06 11:34:55;;;;;;;21.73;5.32;;;;;;;26.75;39.37;102981.28;5031501;28;20083;-54
2022/10/06 11:37:37;;;;;;;19.33;4.95;;;;;;;26.75;39.39;102986.56;5033270;28;20030;-52
2022/10/06 11:40:43;;;;;;;22.80;5.05;;;;;;;26.71;39.58;102982.03;5032439;28;20037;-53
2022/10/06 11:43:22;;;;;;;19.05;4.88;;;;;;;26.66;40.16;102984.50;5028604;28;20116;-53
2022/10/06 11:46:12;;;;;;;21.63;5.22;;;;;;;26.69;40.14;102984.63;5032433;28;20037;-53
2022/10/06 11:48:41;;;;;;;21.88;5.50;;;;;;;26.62;39.82;102968.56;5031815;28;20100;-50
2022/10/06 11:51:27;;;;;;;19.35;5.18;;;;;;;26.65;39.75;102979.16;5031491;28;20025;-56
2022/10/06 11:53:55;;;;;;;19.23;4.75;;;;;;;26.68;39.53;102971.38;5033127;28;20037;-52
2022/10/06 11:56:35;;;;;;;20.20;4.88;;;;;;;26.67;39.68;102966.97;5031144;28;20049;-50
2022/10/06 11:59:10;;;;;;;19.50;5.50;;;;;;;26.66;39.35;102970.44;5031601;28;20092;-55